createdAt,value
2022-08-28T00:00:32.783Z,12.80
2022-08-28T00:01:32.458Z,12.60
2022-08-28T00:02:32.516Z,13.70
2022-08-28T00:03:32.457Z,19.00
2022-08-28T00:04:32.496Z,14.20
2022-08-28T00:05:32.402Z,14.10
2022-08-28T00:06:32.390Z,11.10
2022-08-28T00:07:32.488Z,15.10
2022-08-28T00:08:32.920Z,16.60
2022-08-28T00:09:33.112Z,11.40
2022-08-28T00:10:32.343Z,14.30
2022-08-28T00:11:32.394Z,13.60
2022-08-28T00:15:30.843Z,11.50
2022-08-28T00:16:29.647Z,14.10
2022-08-28T00:22:10.779Z,15.20
2022-08-28T00:28:07.567Z,11.50
2022-08-28T00:31:11.958Z,10.20
2022-08-28T00:45:57.508Z,15.50
2022-08-28T01:27:34.955Z,15.40
2022-08-28T01:40:20.307Z,12.70
2022-08-28T01:43:08.128Z,11.90
2022-08-28T01:44:09.460Z,13.90
2022-08-28T01:45:09.523Z,19.80
2022-08-28T01:46:10.020Z,14.90
2022-08-28T01:47:09.299Z,16.10
2022-08-28T01:48:09.281Z,17.70
2022-08-28T01:49:09.207Z,15.80
2022-08-28T01:50:09.254Z,15.40
2022-08-28T01:51:09.191Z,19.40
2022-08-28T01:52:09.156Z,12.50
2022-08-28T01:53:12.468Z,13.40
2022-08-28T01:54:09.119Z,15.20
2022-08-28T01:55:09.216Z,14.20
2022-08-28T01:56:09.100Z,20.20
2022-08-28T01:57:09.171Z,14.00
2022-08-28T01:58:09.340Z,14.40
2022-08-28T01:59:09.203Z,19.50
2022-08-28T02:00:09.148Z,15.00
2022-08-28T02:01:09.134Z,14.80
2022-08-28T02:02:09.133Z,16.30
2022-08-28T02:03:09.151Z,17.90
2022-08-28T02:04:09.118Z,15.90
2022-08-28T02:05:09.095Z,18.20
2022-08-28T02:06:09.108Z,15.50
2022-08-28T02:07:09.030Z,13.60
2022-08-28T02:08:09.162Z,21.90
2022-08-28T02:09:14.277Z,16.30
2022-08-28T02:10:10.076Z,17.30
2022-08-28T02:11:08.987Z,15.30
2022-08-28T02:12:09.040Z,16.20
2022-08-28T02:13:09.076Z,18.00
2022-08-28T02:14:08.959Z,14.90
2022-08-28T02:15:08.885Z,15.50
2022-08-28T02:16:09.027Z,19.90
2022-08-28T02:17:08.948Z,18.00
2022-08-28T02:18:09.066Z,16.10
2022-08-28T02:19:08.914Z,15.70
2022-08-28T02:20:08.861Z,11.50
2022-08-28T02:21:08.905Z,16.60
2022-08-28T02:22:08.917Z,16.60
2022-08-28T02:23:08.885Z,14.30
2022-08-28T02:24:08.849Z,16.90
2022-08-28T02:25:08.804Z,16.40
2022-08-28T02:26:08.889Z,11.90
2022-08-28T02:27:08.821Z,19.50
2022-08-28T02:28:08.964Z,14.80
2022-08-28T02:29:08.814Z,17.10
2022-08-28T02:30:08.653Z,18.90
2022-08-28T02:31:08.801Z,17.10
2022-08-28T02:32:08.625Z,17.50
2022-08-28T02:33:08.681Z,18.80
2022-08-28T02:34:08.691Z,17.20
2022-08-28T02:35:10.943Z,17.00
2022-08-28T02:36:08.575Z,14.80
2022-08-28T02:37:08.616Z,19.50
2022-08-28T02:38:08.657Z,14.50
2022-08-28T02:39:08.602Z,16.00
2022-08-28T02:40:08.549Z,15.80
2022-08-28T02:41:08.674Z,20.40
2022-08-28T02:42:08.587Z,14.40
2022-08-28T02:43:08.561Z,16.80
2022-08-28T02:44:08.595Z,16.40
2022-08-28T02:45:11.375Z,18.60
2022-08-28T02:46:08.570Z,15.20
2022-08-28T02:47:08.545Z,16.80
2022-08-28T02:48:16.669Z,17.50
2022-08-28T02:49:09.522Z,15.10
2022-08-28T02:50:08.516Z,18.10
2022-08-28T02:51:08.478Z,16.80
2022-08-28T02:52:08.478Z,15.50
2022-08-28T02:53:08.486Z,18.30
2022-08-28T02:54:08.507Z,15.70
2022-08-28T02:55:08.482Z,17.20
2022-08-28T02:56:08.425Z,15.80
2022-08-28T02:57:08.410Z,22.60
2022-08-28T02:58:08.498Z,16.30
2022-08-28T02:59:08.403Z,18.90
2022-08-28T03:00:08.438Z,14.00
2022-08-28T03:01:08.430Z,19.60
2022-08-28T03:02:08.386Z,16.20
2022-08-28T03:03:08.320Z,15.10
2022-08-28T03:04:08.362Z,17.70
2022-08-28T03:05:08.378Z,17.70
2022-08-28T03:06:08.256Z,20.60
2022-08-28T03:07:08.279Z,22.70
2022-08-28T03:08:08.247Z,20.10
2022-08-28T03:09:08.373Z,14.40
2022-08-28T03:10:08.299Z,19.80
2022-08-28T03:11:08.296Z,16.70
2022-08-28T03:12:08.195Z,23.00
2022-08-28T03:13:08.300Z,23.40
2022-08-28T03:14:08.269Z,13.30
2022-08-28T03:15:08.155Z,23.20
2022-08-28T03:16:08.144Z,23.60
2022-08-28T03:17:08.420Z,18.00
2022-08-28T03:18:11.236Z,20.90
2022-08-28T03:19:08.287Z,19.10
2022-08-28T03:20:08.100Z,16.40
2022-08-28T03:21:08.163Z,23.90
2022-08-28T03:22:08.160Z,20.80
2022-08-28T03:23:08.149Z,19.20
2022-08-28T03:24:08.136Z,15.70
2022-08-28T03:25:08.225Z,19.30
2022-08-28T03:26:08.038Z,19.00
2022-08-28T03:27:08.180Z,19.00
2022-08-28T03:28:08.120Z,22.00
2022-08-28T03:29:08.075Z,17.30
2022-08-28T03:30:08.042Z,25.30
2022-08-28T03:31:08.110Z,20.60
2022-08-28T03:32:08.008Z,21.60
2022-08-28T03:33:08.030Z,23.70
2022-08-28T03:34:07.956Z,20.50
2022-08-28T03:35:07.977Z,27.90
2022-08-28T03:36:07.966Z,27.10
2022-08-28T03:37:07.956Z,22.30
2022-08-28T03:38:07.913Z,23.80
2022-08-28T03:39:07.969Z,28.20
2022-08-28T03:40:08.138Z,24.50
2022-08-28T03:41:07.961Z,24.50
2022-08-28T03:42:07.905Z,18.90
2022-08-28T03:43:07.885Z,22.20
2022-08-28T03:44:07.848Z,20.10
2022-08-28T03:45:07.929Z,21.70
2022-08-28T03:46:07.910Z,20.00
2022-08-28T03:47:07.889Z,24.60
2022-08-28T03:48:07.877Z,30.00
2022-08-28T03:49:07.837Z,21.70
2022-08-28T03:50:07.835Z,24.50
2022-08-28T03:51:07.882Z,21.30
2022-08-28T03:52:07.838Z,18.10
2022-08-28T03:53:07.890Z,22.80
2022-08-28T03:54:07.753Z,19.20
2022-08-28T03:55:07.891Z,26.10
2022-08-28T03:56:07.764Z,16.90
2022-08-28T03:57:07.766Z,26.10
2022-08-28T03:58:07.766Z,20.70
2022-08-28T03:59:07.711Z,22.30
2022-08-28T04:00:07.666Z,24.50
2022-08-28T04:01:07.773Z,22.10
2022-08-28T04:02:07.650Z,25.80
2022-08-28T04:03:07.676Z,19.50
2022-08-28T04:04:07.781Z,19.50
2022-08-28T04:05:07.763Z,22.30
2022-08-28T04:06:07.634Z,23.90
2022-08-28T04:07:07.690Z,22.30
2022-08-28T04:08:07.672Z,25.40
2022-08-28T04:09:07.570Z,27.60
2022-08-28T04:10:07.598Z,22.20
2022-08-28T04:11:07.571Z,24.10
2022-08-28T04:12:07.727Z,19.90
2022-08-28T04:13:07.551Z,26.50
2022-08-28T04:14:07.564Z,25.90
2022-08-28T04:15:07.578Z,26.40
2022-08-28T04:16:07.554Z,29.20
2022-08-28T04:17:07.631Z,22.40
2022-08-28T04:18:07.471Z,21.90
2022-08-28T04:19:07.516Z,24.80
2022-08-28T04:20:07.474Z,24.00
2022-08-28T04:21:07.498Z,24.60
2022-08-28T04:22:07.459Z,25.60
2022-08-28T04:23:07.499Z,19.10
2022-08-28T04:24:09.678Z,22.00
2022-08-28T04:25:07.557Z,22.30
2022-08-28T04:26:07.472Z,21.10
2022-08-28T04:27:07.599Z,23.40
2022-08-28T04:28:07.436Z,29.20
2022-08-28T04:29:07.443Z,22.10
2022-08-28T04:30:07.467Z,20.50
2022-08-28T04:31:07.485Z,24.20
2022-08-28T04:32:07.587Z,21.50
2022-08-28T04:33:07.407Z,24.40
2022-08-28T04:34:07.375Z,23.50
2022-08-28T04:35:07.521Z,18.50
2022-08-28T04:36:07.300Z,23.40
2022-08-28T04:37:07.384Z,21.40
2022-08-28T04:38:07.362Z,23.40
2022-08-28T04:39:07.223Z,25.00
2022-08-28T04:40:07.995Z,21.40
2022-08-28T04:41:07.257Z,28.50
2022-08-28T04:42:07.304Z,21.60
2022-08-28T04:43:07.268Z,26.20
2022-08-28T04:44:07.289Z,25.70
2022-08-28T04:45:07.189Z,21.70
2022-08-28T04:46:07.368Z,20.70
2022-08-28T04:47:07.200Z,25.10
2022-08-28T04:48:10.501Z,21.80
2022-08-28T04:49:08.255Z,19.10
2022-08-28T04:50:07.232Z,21.80
2022-08-28T04:51:07.245Z,20.30
2022-08-28T04:52:07.129Z,24.90
2022-08-28T04:53:07.089Z,27.30
2022-08-28T04:54:07.173Z,27.90
2022-08-28T04:55:07.115Z,24.00
2022-08-28T04:56:07.144Z,23.60
2022-08-28T04:57:07.090Z,22.60
2022-08-28T04:58:07.121Z,22.60
2022-08-28T04:59:07.072Z,23.20
2022-08-28T05:00:07.152Z,24.40
2022-08-28T05:01:07.102Z,25.10
2022-08-28T05:02:07.167Z,27.40
2022-08-28T05:03:06.968Z,23.10
2022-08-28T05:04:06.990Z,27.90
2022-08-28T05:05:06.986Z,24.90
2022-08-28T05:06:07.097Z,21.10
2022-08-28T05:07:06.988Z,21.50
2022-08-28T05:08:07.017Z,27.50
2022-08-28T05:09:06.960Z,22.30
2022-08-28T05:10:06.916Z,22.40
2022-08-28T05:11:07.089Z,22.60
2022-08-28T05:12:07.009Z,20.70
2022-08-28T05:13:06.874Z,26.60
2022-08-28T05:14:06.989Z,22.60
2022-08-28T05:15:06.893Z,19.20
2022-08-28T05:16:06.915Z,25.70
2022-08-28T05:17:06.869Z,27.10
2022-08-28T05:18:06.870Z,25.20
2022-08-28T05:19:06.814Z,22.00
2022-08-28T05:20:06.948Z,23.60
2022-08-28T05:21:06.718Z,24.50
2022-08-28T05:22:06.759Z,23.60
2022-08-28T05:23:06.781Z,22.60
2022-08-28T05:24:06.754Z,32.00
2022-08-28T05:25:06.733Z,25.10
2022-08-28T05:26:07.959Z,26.30
2022-08-28T05:27:06.867Z,24.20
2022-08-28T05:28:06.822Z,26.40
2022-08-28T05:29:07.953Z,20.20
2022-08-28T05:30:06.643Z,24.80
2022-08-28T05:31:06.673Z,27.70
2022-08-28T05:32:06.611Z,21.60
2022-08-28T05:33:06.722Z,18.70
2022-08-28T05:34:07.008Z,24.10
2022-08-28T05:35:06.611Z,21.90
2022-08-28T05:36:06.686Z,20.10
2022-08-28T05:37:06.666Z,22.90
2022-08-28T05:38:06.672Z,19.00
2022-08-28T05:39:06.581Z,26.20
2022-08-28T05:40:06.573Z,20.20
2022-08-28T05:41:06.610Z,24.60
2022-08-28T05:42:06.482Z,22.40
2022-08-28T05:43:06.508Z,27.10
2022-08-28T05:44:06.528Z,17.40
2022-08-28T05:45:06.510Z,21.40
2022-08-28T05:46:06.561Z,20.50
2022-08-28T05:47:06.451Z,23.50
2022-08-28T05:48:06.551Z,25.30
2022-08-28T05:49:09.810Z,24.70
2022-08-28T05:50:07.439Z,17.20
2022-08-28T05:51:06.483Z,23.10
2022-08-28T05:52:06.397Z,21.90
2022-08-28T05:53:06.428Z,20.70
2022-08-28T05:54:06.383Z,25.80
2022-08-28T05:55:06.416Z,24.80
2022-08-28T05:56:06.429Z,22.90
2022-08-28T05:57:06.395Z,25.60
2022-08-28T05:58:06.417Z,25.00
2022-08-28T05:59:06.427Z,21.80
2022-08-28T06:00:06.319Z,22.00
2022-08-28T06:01:06.400Z,22.80
2022-08-28T06:02:06.468Z,26.30
2022-08-28T06:03:06.456Z,18.60
2022-08-28T06:04:06.619Z,24.50
2022-08-28T06:05:06.388Z,24.20
2022-08-28T06:06:06.330Z,24.10
2022-08-28T06:07:06.499Z,20.70
2022-08-28T06:12:11.268Z,22.30
2022-08-28T06:16:34.121Z,25.80
2022-08-28T08:10:26.609Z,16.50
2022-08-28T08:11:25.510Z,16.10
2022-08-28T08:12:24.466Z,18.20
2022-08-28T08:13:24.435Z,16.90
2022-08-28T08:14:24.421Z,21.30
2022-08-28T08:15:27.312Z,16.50
2022-08-28T08:16:25.403Z,18.50
2022-08-28T08:17:24.474Z,14.90
2022-08-28T08:18:25.162Z,21.70
2022-08-28T08:19:24.319Z,19.80
2022-08-28T08:20:24.330Z,16.20
2022-08-28T08:21:27.171Z,17.50
2022-08-28T08:22:26.358Z,17.50
2022-08-28T08:23:24.354Z,16.80
2022-08-28T08:24:24.298Z,16.30
2022-08-28T08:25:24.274Z,18.70
2022-08-28T08:26:24.290Z,16.40
2022-08-28T08:27:24.298Z,14.20
2022-08-28T08:28:24.219Z,19.80
2022-08-28T08:29:24.233Z,16.80
2022-08-28T08:30:24.262Z,17.50
2022-08-28T08:31:24.299Z,14.50
2022-08-28T08:32:24.200Z,20.00
2022-08-28T08:33:24.167Z,20.20
2022-08-28T08:34:24.186Z,18.20
2022-08-28T08:35:24.298Z,18.00
2022-08-28T08:36:24.131Z,20.40
2022-08-28T08:37:25.110Z,20.70
2022-08-28T08:38:24.130Z,15.80
2022-08-28T08:39:24.114Z,16.80
2022-08-28T08:40:24.327Z,17.50
2022-08-28T08:41:24.059Z,16.50
2022-08-28T08:42:24.173Z,17.90
2022-08-28T08:43:24.052Z,19.10
2022-08-28T08:44:24.042Z,21.70
2022-08-28T08:45:25.059Z,14.50
2022-08-28T08:46:24.090Z,14.10
2022-08-28T08:47:24.038Z,17.10
2022-08-28T08:48:24.053Z,17.30
2022-08-28T08:49:24.029Z,18.90
2022-08-28T08:50:24.024Z,14.40
2022-08-28T08:51:24.026Z,15.70
2022-08-28T08:52:24.031Z,17.70
2022-08-28T08:53:24.063Z,16.20
2022-08-28T08:54:24.105Z,17.20
2022-08-28T08:55:24.183Z,17.40
2022-08-28T08:56:23.999Z,19.40
2022-08-28T08:57:25.027Z,18.10
2022-08-28T08:58:23.937Z,16.50
2022-08-28T08:59:23.955Z,18.00
2022-08-28T09:00:23.955Z,16.10
2022-08-28T09:01:23.907Z,16.90
2022-08-28T09:02:31.276Z,13.40
2022-08-28T09:03:24.948Z,13.90
2022-08-28T09:04:23.875Z,13.70
2022-08-28T09:05:23.923Z,17.20
2022-08-28T09:06:23.863Z,16.90
2022-08-28T09:07:23.811Z,18.00
2022-08-28T09:08:24.119Z,13.50
2022-08-28T09:09:23.785Z,14.30
2022-08-28T09:10:23.815Z,18.20
2022-08-28T09:11:24.000Z,16.30
2022-08-28T09:12:23.771Z,14.20
2022-08-28T09:13:24.751Z,15.90
2022-08-28T09:14:28.120Z,13.50
2022-08-28T09:15:25.541Z,13.80
2022-08-28T09:16:23.781Z,13.80
2022-08-28T09:17:23.743Z,16.10
2022-08-28T09:18:24.253Z,16.00
2022-08-28T09:19:23.749Z,13.30
2022-08-28T09:20:45.675Z,18.70
2022-08-28T09:22:50.377Z,18.80
2022-08-28T09:22:52.453Z,11.30
2022-08-28T09:24:54.091Z,14.40
2022-08-28T09:24:55.682Z,19.10
2022-08-28T09:27:22.273Z,14.00
2022-08-28T09:27:24.034Z,14.90
2022-08-28T09:31:00.534Z,17.40
2022-08-28T09:31:03.641Z,18.00
2022-08-28T09:32:44.818Z,10.40
2022-08-28T09:34:29.731Z,15.10
2022-08-28T09:34:35.506Z,17.30
2022-08-28T09:36:58.392Z,19.30
2022-08-28T09:39:49.628Z,16.30
2022-08-28T09:39:51.908Z,16.20
2022-08-28T09:41:07.566Z,22.80
2022-08-28T09:43:00.550Z,12.30
2022-08-28T09:45:30.050Z,22.20
2022-08-28T09:47:15.700Z,18.50
2022-08-28T09:47:19.939Z,18.00
2022-08-28T09:48:20.650Z,19.90
2022-08-28T09:50:39.993Z,15.30
2022-08-28T09:50:45.650Z,15.40
2022-08-28T09:54:35.067Z,10.60
2022-08-28T09:54:47.259Z,12.40
2022-08-28T09:58:39.899Z,13.30
2022-08-28T09:58:59.454Z,16.80
2022-08-28T10:00:44.220Z,18.40
2022-08-28T10:02:10.360Z,19.00
2022-08-28T10:02:12.408Z,16.10
2022-08-28T10:05:26.801Z,14.50
2022-08-28T10:05:32.452Z,15.60
2022-08-28T10:06:40.452Z,14.80
2022-08-28T10:07:35.474Z,10.70
2022-08-28T10:09:55.451Z,11.50
2022-08-28T10:11:44.724Z,13.10
2022-08-28T10:12:13.125Z,14.10
2022-08-28T10:14:39.561Z,13.20
2022-08-28T10:14:48.479Z,16.10
2022-08-28T10:23:31.180Z,11.40
2022-08-28T10:27:33.677Z,17.30
2022-08-28T10:27:44.328Z,13.70
2022-08-28T10:31:18.522Z,14.90
2022-08-28T10:40:11.256Z,13.20
2022-08-28T10:43:21.353Z,17.10
2022-08-28T10:43:25.250Z,13.40
2022-08-28T10:44:24.125Z,12.60
2022-08-28T10:45:25.634Z,12.60
2022-08-28T10:46:27.080Z,13.60
2022-08-28T10:47:39.103Z,13.20
2022-08-28T10:48:23.430Z,12.80
2022-08-28T10:52:11.251Z,13.50
2022-08-28T10:54:00.223Z,14.90
2022-08-28T10:56:16.234Z,13.40
2022-08-28T10:56:17.909Z,15.40
2022-08-28T10:57:38.726Z,13.00
2022-08-28T11:11:36.593Z,10.70
2022-08-28T11:14:04.349Z,9.90
2022-08-28T11:14:05.905Z,13.00
2022-08-28T11:15:05.937Z,14.10
2022-08-28T11:18:41.409Z,16.20
2022-08-28T11:18:46.705Z,13.00
2022-08-28T11:25:37.621Z,12.70
2022-08-28T11:26:56.726Z,9.80
2022-08-28T11:29:05.001Z,10.80
2022-08-28T11:29:06.830Z,11.20
2022-08-28T11:30:06.523Z,13.00
2022-08-28T11:35:29.738Z,12.30
2022-08-28T11:38:33.399Z,8.10
2022-08-28T11:41:17.126Z,11.80
2022-08-28T11:41:24.346Z,9.80
2022-08-28T11:42:22.650Z,9.80
2022-08-28T11:43:20.151Z,10.20
2022-08-28T11:44:19.511Z,12.80
2022-08-28T11:45:19.531Z,11.10
2022-08-28T11:46:32.095Z,7.10
2022-08-28T11:47:19.503Z,11.50
2022-08-28T11:50:02.700Z,10.10
2022-08-28T11:50:05.571Z,10.00
2022-08-28T11:54:07.087Z,11.50
2022-08-28T11:55:22.651Z,11.50
2022-08-28T12:05:25.060Z,10.10
2022-08-28T12:06:19.692Z,10.30
2022-08-28T12:07:19.129Z,10.20
2022-08-28T12:09:45.108Z,9.60
2022-08-28T12:09:50.833Z,13.20
2022-08-28T12:13:53.035Z,8.90
2022-08-28T12:16:32.708Z,11.80
2022-08-28T12:16:38.977Z,9.80
2022-08-28T12:18:34.412Z,10.80
2022-08-28T12:18:38.864Z,9.90
2022-08-28T12:26:32.732Z,8.60
2022-08-28T12:27:40.840Z,9.00
2022-08-28T12:28:26.810Z,10.70
2022-08-28T12:35:20.402Z,8.60
2022-08-28T12:36:26.349Z,9.80
2022-08-28T12:36:31.089Z,7.90
2022-08-28T12:40:13.845Z,7.40
2022-08-28T12:40:19.727Z,9.70
2022-08-28T12:41:23.313Z,13.30
2022-08-28T12:42:17.146Z,11.90
2022-08-28T12:43:29.047Z,10.20
2022-08-28T12:45:48.922Z,8.60
2022-08-28T12:45:58.104Z,9.40
2022-08-28T12:47:04.423Z,9.20
2022-08-28T12:50:51.390Z,12.10
2022-08-28T12:51:54.730Z,11.40
2022-08-28T12:54:33.629Z,11.80
2022-08-28T12:58:27.717Z,13.80
2022-08-28T12:59:37.862Z,8.50
2022-08-28T13:00:25.937Z,13.20
2022-08-28T13:03:16.590Z,10.60
2022-08-28T13:08:27.530Z,11.50
2022-08-28T13:13:46.840Z,8.20
2022-08-28T13:16:27.669Z,8.60
2022-08-28T13:19:12.263Z,9.30
2022-08-28T13:20:01.791Z,15.10
2022-08-28T13:21:00.359Z,11.70
2022-08-28T13:24:23.256Z,9.30
2022-08-28T13:24:28.851Z,10.10
2022-08-28T13:26:05.823Z,11.30
2022-08-28T13:27:52.031Z,11.30
2022-08-28T13:28:12.479Z,9.90
2022-08-28T13:28:59.090Z,9.20
2022-08-28T13:32:56.971Z,10.90
2022-08-28T13:33:09.140Z,8.70
2022-08-28T13:38:26.890Z,9.70
2022-08-28T13:43:35.240Z,9.90
2022-08-28T13:51:27.318Z,8.60
2022-08-28T14:01:40.251Z,7.40
2022-08-28T14:18:02.002Z,9.00
2022-08-28T14:18:36.275Z,9.30
2022-08-28T14:24:43.443Z,8.30
2022-08-28T14:33:59.111Z,8.90
2022-08-28T14:40:52.148Z,7.10
2022-08-28T14:50:23.152Z,8.20
2022-08-28T14:53:49.688Z,11.20
2022-08-28T14:56:45.507Z,8.80
2022-08-28T15:02:59.919Z,9.80
2022-08-28T15:07:46.732Z,9.00
2022-08-28T15:16:37.032Z,10.10
2022-08-28T15:24:28.399Z,10.10
2022-08-28T15:28:15.179Z,9.80
2022-08-28T15:29:29.295Z,9.20
2022-08-28T15:30:16.633Z,10.00
2022-08-28T15:34:45.058Z,10.90
2022-08-28T15:40:42.212Z,8.80
2022-08-28T15:45:59.736Z,9.20
2022-08-28T16:12:55.618Z,9.90
2022-08-28T16:17:23.867Z,9.60
2022-08-28T16:25:23.190Z,6.90
2022-08-28T16:53:13.969Z,11.40
2022-08-28T18:01:19.499Z,12.50
2022-08-28T18:03:50.638Z,8.70
2022-08-28T18:03:50.680Z,6.70
2022-08-28T18:04:44.498Z,11.80
2022-08-28T18:05:43.207Z,8.70
2022-08-28T18:06:43.232Z,9.00
2022-08-28T18:07:43.215Z,9.00
2022-08-28T18:08:43.194Z,10.80
2022-08-28T18:09:43.166Z,13.60
2022-08-28T18:10:43.241Z,14.10
2022-08-28T18:11:43.145Z,8.20
2022-08-28T18:12:43.134Z,10.20
2022-08-28T18:13:43.141Z,10.00
2022-08-28T18:14:43.103Z,11.70
2022-08-28T18:15:43.381Z,10.50
2022-08-28T18:16:43.206Z,12.60
2022-08-28T18:17:43.091Z,9.30
2022-08-28T18:18:43.055Z,9.10
2022-08-28T18:19:43.079Z,8.40
2022-08-28T18:20:43.073Z,8.60
2022-08-28T18:21:43.027Z,13.60
2022-08-28T18:22:43.263Z,8.40
2022-08-28T18:23:43.031Z,10.40
2022-08-28T18:24:43.092Z,9.00
2022-08-28T18:25:43.423Z,12.00
2022-08-28T18:26:43.968Z,8.20
2022-08-28T18:27:43.011Z,8.40
2022-08-28T18:28:42.937Z,9.50
2022-08-28T18:29:42.939Z,8.50
2022-08-28T18:30:42.992Z,9.70
2022-08-28T18:31:42.937Z,10.50
2022-08-28T18:32:42.944Z,9.00
2022-08-28T18:33:42.904Z,9.90
2022-08-28T18:34:42.924Z,9.30
2022-08-28T18:35:46.271Z,8.00
2022-08-28T18:36:44.860Z,11.80
2022-08-28T18:37:42.924Z,8.10
2022-08-28T18:38:42.870Z,10.90
2022-08-28T18:39:42.824Z,7.10
2022-08-28T18:40:42.899Z,7.00
2022-08-28T18:41:44.144Z,11.90
2022-08-28T18:42:42.796Z,9.60
2022-08-28T18:43:42.880Z,13.40
2022-08-28T18:44:42.784Z,10.00
2022-08-28T18:45:42.770Z,9.30
2022-08-28T18:46:42.833Z,9.90
2022-08-28T18:47:42.779Z,10.30
2022-08-28T18:48:42.779Z,7.80
2022-08-28T18:49:42.868Z,9.50
2022-08-28T19:17:54.174Z,9.90
2022-08-28T19:18:54.097Z,10.20
2022-08-28T19:19:53.993Z,8.60
2022-08-28T19:20:53.938Z,8.80
2022-08-28T19:21:53.933Z,8.90
2022-08-28T19:22:53.990Z,8.90
2022-08-28T19:23:56.084Z,8.80
2022-08-28T19:24:53.897Z,7.10
2022-08-28T19:25:53.947Z,9.20
2022-08-28T19:26:54.038Z,8.20
2022-08-28T19:27:56.423Z,9.00
2022-08-28T19:28:54.847Z,10.10
2022-08-28T19:29:53.826Z,13.00
2022-08-28T19:30:53.882Z,9.60
2022-08-28T19:31:53.845Z,12.10
2022-08-28T19:32:53.826Z,8.00
2022-08-28T19:33:53.761Z,7.50
2022-08-28T19:34:53.771Z,11.40
2022-08-28T19:35:53.813Z,9.10
2022-08-28T19:36:53.766Z,7.50
2022-08-28T19:37:53.782Z,11.70
2022-08-28T19:38:53.800Z,9.50
2022-08-28T19:39:56.391Z,11.70
2022-08-28T19:40:53.791Z,12.70
2022-08-28T19:41:53.702Z,10.80
2022-08-28T19:42:53.704Z,10.70
2022-08-28T19:43:53.692Z,10.00
2022-08-28T19:44:59.739Z,10.10
2022-08-28T19:45:54.682Z,9.30
2022-08-28T19:46:53.644Z,9.60
2022-08-28T19:47:53.685Z,11.00
2022-08-28T19:48:53.621Z,9.50
2022-08-28T19:49:53.593Z,7.60
2022-08-28T19:50:53.678Z,9.70
2022-08-28T20:20:29.906Z,8.40
2022-08-28T20:21:37.225Z,9.60
2022-08-28T20:22:27.141Z,6.70
2022-08-28T20:23:26.282Z,10.00
2022-08-28T20:24:25.956Z,7.80
2022-08-28T20:25:27.247Z,15.10
2022-08-28T20:26:25.505Z,11.50
2022-08-28T20:27:25.510Z,12.90
2022-08-28T20:28:25.445Z,8.50
2022-08-28T20:29:25.422Z,10.90
2022-08-28T20:30:25.473Z,8.60
2022-08-28T20:31:25.437Z,10.50
2022-08-28T20:32:25.477Z,7.70
2022-08-28T20:33:25.418Z,12.40
2022-08-28T20:34:25.394Z,11.70
2022-08-28T20:35:25.378Z,7.40
2022-08-28T20:36:25.414Z,14.50
2022-08-28T20:37:25.385Z,8.80
2022-08-28T20:38:25.538Z,6.30
2022-08-28T20:39:25.350Z,12.60
2022-08-28T20:40:25.380Z,8.40
2022-08-28T20:41:25.310Z,8.10
2022-08-28T20:42:25.281Z,8.80
2022-08-28T20:43:26.326Z,7.80
2022-08-28T20:44:25.362Z,7.70
2022-08-28T20:45:25.312Z,7.20
2022-08-28T20:46:25.298Z,10.40
2022-08-28T20:47:25.222Z,8.80
2022-08-28T20:48:25.229Z,8.10
2022-08-28T20:49:25.296Z,11.10
2022-08-28T20:50:25.281Z,10.90
2022-08-28T20:51:25.158Z,7.00
2022-08-28T20:52:25.202Z,8.40
2022-08-28T20:53:36.882Z,11.30
2022-08-28T20:54:26.160Z,11.70
2022-08-28T20:55:25.209Z,10.50
2022-08-28T20:56:25.234Z,7.30
2022-08-28T20:57:25.121Z,9.20
2022-08-28T20:58:25.141Z,11.40
2022-08-28T20:59:25.214Z,10.40
2022-08-28T21:00:25.100Z,10.60
2022-08-28T21:01:25.195Z,11.80
2022-08-28T21:02:25.093Z,10.70
2022-08-28T21:03:25.165Z,14.40
2022-08-28T21:04:25.038Z,9.40
2022-08-28T21:05:25.175Z,11.00
2022-08-28T21:06:25.073Z,11.50
2022-08-28T21:07:25.029Z,9.40
2022-08-28T21:08:25.055Z,12.80
2022-08-28T21:09:40.951Z,8.90
2022-08-28T21:10:26.166Z,8.60
2022-08-28T21:11:25.007Z,13.60
2022-08-28T21:12:25.016Z,8.40
2022-08-28T21:13:24.961Z,8.90
2022-08-28T21:14:24.954Z,11.90
2022-08-28T21:15:24.936Z,7.50
2022-08-28T21:16:25.050Z,9.90
2022-08-28T21:17:29.728Z,10.10
2022-08-28T21:18:25.902Z,9.20
2022-08-28T21:19:24.897Z,8.50
2022-08-28T21:20:24.872Z,8.10
2022-08-28T21:21:24.931Z,8.90
2022-08-28T21:22:24.866Z,13.60
2022-08-28T21:23:24.843Z,8.90
2022-08-28T21:24:24.969Z,7.90
2022-08-28T21:25:24.804Z,8.00
2022-08-28T21:26:24.871Z,8.50
2022-08-28T21:27:24.826Z,9.60
2022-08-28T21:28:25.729Z,7.60
2022-08-28T21:29:24.804Z,10.00
2022-08-28T21:30:29.526Z,10.60
2022-08-28T21:31:24.781Z,8.70
2022-08-28T21:32:24.823Z,8.50
2022-08-28T21:33:24.749Z,7.10
2022-08-28T21:34:24.739Z,6.80
2022-08-28T21:35:24.729Z,8.00
2022-08-28T21:36:24.708Z,9.00
2022-08-28T21:37:24.754Z,9.10
2022-08-28T21:38:24.700Z,11.50
2022-08-28T21:39:24.692Z,5.60
2022-08-28T21:40:24.690Z,8.20
2022-08-28T21:41:24.627Z,9.40
2022-08-28T21:42:24.700Z,9.30
2022-08-28T21:43:24.668Z,10.50
2022-08-28T21:44:25.601Z,9.40
2022-08-28T21:45:24.576Z,11.20
2022-08-28T21:46:24.615Z,11.30
2022-08-28T21:47:24.819Z,8.50
2022-08-28T21:48:24.577Z,9.60
2022-08-28T21:49:24.552Z,6.90
2022-08-28T21:50:24.538Z,8.90
2022-08-28T21:51:24.504Z,9.60
2022-08-28T21:52:24.644Z,9.80
2022-08-28T21:53:24.789Z,7.60
2022-08-28T21:54:24.956Z,8.80
2022-08-28T21:55:24.694Z,9.00
2022-08-28T21:56:24.473Z,7.30
2022-08-28T21:57:24.482Z,11.50
2022-08-28T21:58:24.461Z,10.70
2022-08-28T21:59:24.475Z,6.40
2022-08-28T22:00:24.444Z,7.20
2022-08-28T22:01:24.604Z,10.70
2022-08-28T22:02:24.545Z,10.40
2022-08-28T22:03:24.597Z,7.20
2022-08-28T22:04:24.461Z,8.10
2022-08-28T22:05:24.833Z,9.60
2022-08-28T22:06:24.569Z,6.20
2022-08-28T22:07:24.517Z,8.00
2022-08-28T22:08:24.354Z,9.70
2022-08-28T22:09:25.635Z,9.90
2022-08-28T22:10:24.278Z,10.10
2022-08-28T22:11:25.585Z,12.40
2022-08-28T22:12:24.306Z,10.00
2022-08-28T22:13:24.277Z,6.90
2022-08-28T22:14:24.282Z,8.70
2022-08-28T22:15:24.270Z,8.70
2022-08-28T22:16:24.286Z,9.80
2022-08-28T22:17:25.105Z,8.90
2022-08-28T22:18:24.250Z,7.60
2022-08-28T22:19:25.256Z,6.60
2022-08-28T22:20:24.174Z,8.80
2022-08-28T22:21:24.205Z,6.30
2022-08-28T22:22:24.173Z,8.60
2022-08-28T22:23:24.217Z,8.40
2022-08-28T22:24:24.170Z,7.30
2022-08-28T22:25:24.167Z,7.20
2022-08-28T22:26:24.146Z,10.30
2022-08-28T22:27:24.335Z,10.00
2022-08-28T22:28:24.303Z,8.40
2022-08-28T22:29:24.178Z,7.50
2022-08-28T22:30:24.534Z,8.30
2022-08-28T22:31:24.352Z,9.50
2022-08-28T22:32:24.246Z,9.00
2022-08-28T22:33:24.190Z,9.60
2022-08-28T22:34:24.295Z,9.80
2022-08-28T22:35:24.175Z,7.10
2022-08-28T22:36:24.370Z,10.70
2022-08-28T22:37:24.183Z,9.30
2022-08-28T22:38:23.966Z,7.60
2022-08-28T22:39:24.237Z,10.40
2022-08-28T22:40:24.541Z,8.10
2022-08-28T22:41:24.364Z,11.40
2022-08-28T22:42:24.033Z,6.30
2022-08-28T22:43:24.074Z,6.50
2022-08-28T22:44:23.931Z,10.30
2022-08-28T22:45:24.075Z,7.30
2022-08-28T22:46:24.083Z,11.30
2022-08-28T22:47:24.019Z,11.80
2022-08-28T22:48:24.339Z,9.80
2022-08-28T22:49:24.051Z,9.70
2022-08-28T22:50:23.903Z,6.80
2022-08-28T22:51:24.016Z,10.70
2022-08-28T22:52:24.175Z,7.00
2022-08-28T22:53:23.815Z,8.00
2022-08-28T22:54:24.665Z,9.80
2022-08-28T22:55:24.144Z,9.70
2022-08-28T22:56:23.796Z,9.00
2022-08-28T22:57:23.815Z,13.20
2022-08-28T22:58:23.808Z,10.60
2022-08-28T22:59:23.781Z,8.40
2022-08-28T23:00:23.748Z,11.00
2022-08-28T23:01:23.744Z,8.30
2022-08-28T23:02:27.360Z,10.70
2022-08-28T23:03:23.953Z,9.00
2022-08-28T23:04:23.741Z,10.10
2022-08-28T23:05:23.696Z,8.50
2022-08-28T23:06:23.667Z,7.50
2022-08-28T23:07:23.665Z,10.20
2022-08-28T23:08:23.694Z,9.20
2022-08-28T23:09:23.691Z,7.70
2022-08-28T23:10:42.025Z,9.90
2022-08-28T23:11:25.645Z,8.20
2022-08-28T23:12:23.656Z,10.20
2022-08-28T23:13:23.569Z,12.60
2022-08-28T23:14:23.613Z,7.60
2022-08-28T23:15:23.608Z,9.60
2022-08-28T23:16:24.091Z,5.70
2022-08-28T23:17:23.665Z,8.10
2022-08-28T23:18:23.680Z,7.90
2022-08-28T23:19:23.507Z,11.20
2022-08-28T23:20:23.667Z,11.60
2022-08-28T23:21:23.790Z,6.60
2022-08-28T23:22:23.637Z,9.30
2022-08-28T23:23:23.593Z,8.90
2022-08-28T23:24:23.519Z,7.80
2022-08-28T23:25:23.710Z,8.40
2022-08-28T23:26:23.452Z,9.80
2022-08-28T23:27:37.687Z,7.80